KDCA/DCA METAR and TAF weather

Enter ICAO airport designator
Station Type Date Time Source
KDCA METAR 2020/08/15 15:52 UTC NOAA

KDCA 151552Z 07008KT 10SM FEW037 SCT100 OVC120 26/19 A2998 RMK AO2 RAB20E48 SLP153 P0000 T02560189


Station Type Date Time Source
KDCA Decoded METAR 2020/08/15 15:52 UTC NOAA

WASHINGTON NATIONAL AIRPORT , VA, United States (KDCA) 38-51N 077-02W 18M
Aug 15, 2020 - 11:52 AM EDT / 2020.08.15 1552 UTC
Wind: from the ENE (070 degrees) at 9 MPH (8 KT):0
Visibility: 10 mile(s):0
Sky conditions: overcast
Precipitation last hour: A trace
Temperature: 78.1 F (25.6 C)
Dew Point: 66.0 F (18.9 C)
Relative Humidity: 66%
Pressure (altimeter): 29.98 in. Hg (1015 hPa)
ob: KDCA 151552Z 07008KT 10SM FEW037 SCT100 OVC120 26/19 A2998 RMK AO2 RAB20E48 SLP153 P0000 T02560189
cycle: 16

Station Type Date Time Source
KDCA TAF 2020/08/15 15:54 UTC NOAA

TAF
AMD KDCA 151452Z 1515/1618 06005KT P6SM VCSH BKN140 OVC200
FM160300 08006KT P6SM -SHRA OVC050
FM160500 06007KT 6SM -SHRA OVC010
FM161300 05009KT 5SM -SHRA OVC015

Example: see airport list